Time;durP1;ratioP1;P1;durP2;ratioP2;P2;SDS_P1;SDS_P2;PMS_P1;PMS_P2;Temp;Humidity;BMP_temperature;BMP_pressure;BME280_temperature;BME280_humidity;BME280_pressure;Samples;Min_cycle;Max_cycle;Signal;HPM_P1;HPM_P2
2021/07/16 00:01:01;;;;;;;7.07;3.70;;;17.50;99.90;;;;;;5075014;28;20465;-76
2021/07/16 00:03:26;;;;;;;8.13;3.92;;;17.60;99.90;;;;;;5073178;28;20019;-76
2021/07/16 00:05:52;;;;;;;6.82;3.92;;;17.50;99.90;;;;;;5075082;28;20043;-75
2021/07/16 00:08:17;;;;;;;4.75;3.42;;;17.50;99.90;;;;;;5074606;28;20529;-75
2021/07/16 00:10:43;;;;;;;8.43;3.88;;;17.50;99.90;;;;;;5072878;28;20021;-76
2021/07/16 00:13:09;;;;;;;6.43;3.78;;;17.50;99.90;;;;;;5072690;28;20017;-76
2021/07/16 00:15:35;;;;;;;9.48;4.78;;;17.40;99.90;;;;;;5071031;28;20028;-76
2021/07/16 00:18:00;;;;;;;7.30;4.05;;;17.50;99.90;;;;;;5070974;28;20029;-76
2021/07/16 00:20:26;;;;;;;6.18;3.85;;;17.50;99.90;;;;;;5072062;28;20016;-76
2021/07/16 00:22:51;;;;;;;8.30;4.22;;;17.50;99.90;;;;;;5074740;28;20028;-76
2021/07/16 00:25:17;;;;;;;6.30;3.90;;;17.50;99.90;;;;;;5074761;28;20028;-76
2021/07/16 00:27:42;;;;;;;7.90;4.40;;;17.50;99.90;;;;;;5071515;28;20386;-76
2021/07/16 00:30:09;;;;;;;6.72;3.60;;;17.40;99.90;;;;;;5072126;28;20020;-76
2021/07/16 00:32:35;;;;;;;7.93;4.20;;;17.40;99.90;;;;;;5075077;28;20035;-76
2021/07/16 00:35:01;;;;;;;7.63;3.78;;;17.40;99.90;;;;;;5071546;28;20036;-76
2021/07/16 00:37:26;;;;;;;5.50;4.10;;;17.50;99.90;;;;;;5073847;28;20059;-76
2021/07/16 00:39:52;;;;;;;7.00;3.90;;;17.40;99.90;;;;;;5072309;28;20032;-76
2021/07/16 00:42:19;;;;;;;5.05;3.47;;;17.40;99.90;;;;;;5072442;28;20385;-76
2021/07/16 00:44:45;;;;;;;5.63;3.88;;;17.40;99.90;;;;;;5070113;28;20078;-76
2021/07/16 00:47:10;;;;;;;6.60;4.25;;;17.40;99.90;;;;;;5070843;28;20028;-76
2021/07/16 00:49:36;;;;;;;6.43;3.70;;;17.40;99.90;;;;;;5074836;28;20016;-76
2021/07/16 00:52:02;;;;;;;8.43;3.75;;;17.40;99.90;;;;;;5073114;28;20443;-75
2021/07/16 00:54:28;;;;;;;8.18;4.35;;;17.40;99.90;;;;;;5074074;28;20021;-75
2021/07/16 00:56:54;;;;;;;7.22;4.15;;;17.40;99.90;;;;;;5072112;28;20107;-76
2021/07/16 00:59:20;;;;;;;5.82;4.35;;;17.40;99.90;;;;;;5072475;28;20019;-75
2021/07/16 01:01:47;;;;;;;7.13;4.40;;;17.40;99.90;;;;;;5071491;28;20016;-76
2021/07/16 01:04:13;;;;;;;7.18;4.38;;;17.40;99.90;;;;;;5072454;28;20071;-76
2021/07/16 01:06:39;;;;;;;6.63;4.28;;;17.40;99.90;;;;;;5075891;28;20024;-76
2021/07/16 01:09:05;;;;;;;5.57;3.80;;;17.40;99.90;;;;;;5076136;28;20378;-76
2021/07/16 01:11:31;;;;;;;8.65;3.70;;;17.40;99.90;;;;;;5077552;28;20025;-76
2021/07/16 01:13:57;;;;;;;10.05;4.13;;;17.40;99.90;;;;;;5077268;28;20549;-76
2021/07/16 01:16:23;;;;;;;5.47;3.78;;;17.40;99.90;;;;;;5075905;28;20029;-75
2021/07/16 01:18:48;;;;;;;8.55;4.60;;;17.40;99.90;;;;;;5075529;28;20028;-75
2021/07/16 01:21:15;;;;;;;6.93;3.80;;;17.40;99.90;;;;;;5076239;28;20017;-76
2021/07/16 01:23:42;;;;;;;5.18;3.90;;;17.40;99.90;;;;;;5075954;28;20094;-75
2021/07/16 01:26:08;;;;;;;7.80;3.88;;;17.40;99.90;;;;;;5075729;28;20028;-76
2021/07/16 01:28:40;;;;;;;5.20;3.45;;;17.50;99.90;;;;;;5074643;28;20036;-75
2021/07/16 01:31:09;;;;;;;5.75;3.72;;;17.50;99.90;;;;;;5076723;28;20021;-75
2021/07/16 01:33:35;;;;;;;6.47;3.42;;;17.50;99.90;;;;;;5077518;28;20489;-76
2021/07/16 01:36:01;;;;;;;4.45;3.47;;;17.50;99.90;;;;;;5076682;28;20028;-76
2021/07/16 01:38:27;;;;;;;6.15;3.78;;;17.50;99.90;;;;;;5075173;28;20063;-76
2021/07/16 01:40:53;;;;;;;6.47;4.70;;;17.40;99.90;;;;;;5076101;28;20012;-76
2021/07/16 01:43:19;;;;;;;8.25;3.88;;;17.50;99.90;;;;;;5074575;28;20381;-76
2021/07/16 01:45:45;;;;;;;8.05;5.18;;;17.40;99.90;;;;;;5074163;28;20025;-76
2021/07/16 01:48:12;;;;;;;7.45;4.47;;;17.40;99.90;;;;;;5077892;28;20040;-75
2021/07/16 01:50:47;;;;;;;8.25;5.22;;;17.40;99.90;;;;;;5079315;28;20111;-75
2021/07/16 01:53:14;;;;;;;9.85;5.07;;;17.40;99.90;;;;;;5077335;28;20052;-76
2021/07/16 01:55:40;;;;;;;11.25;5.70;;;17.40;99.90;;;;;;5074971;28;20021;-75
2021/07/16 01:58:08;;;;;;;10.10;4.95;;;17.30;99.90;;;;;;5074551;28;20495;-75
2021/07/16 02:00:38;;;;;;;7.57;4.50;;;17.30;99.90;;;;;;5074541;28;20523;-76
2021/07/16 02:03:04;;;;;;;;;;;17.30;99.90;;;;;;5072551;28;20024;-75
2021/07/16 02:05:30;;;;;;;8.45;4.68;;;17.30;99.90;;;;;;5078835;28;20108;-75
2021/07/16 02:08:03;;;;;;;9.48;5.30;;;17.30;99.90;;;;;;5076673;28;20520;-75
2021/07/16 02:10:29;;;;;;;11.82;5.40;;;17.30;99.90;;;;;;5075353;28;20477;-75
2021/07/16 02:12:56;;;;;;;8.52;4.90;;;17.30;99.90;;;;;;5076004;28;20017;-75
2021/07/16 02:15:24;;;;;;;10.40;4.70;;;17.30;99.90;;;;;;5073008;28;20058;-75
2021/07/16 02:17:50;;;;;;;12.40;6.47;;;17.30;99.90;;;;;;5073479;28;20008;-76
2021/07/16 02:20:28;;;;;;;10.55;5.75;;;17.30;99.90;;;;;;5076152;28;20355;-76
2021/07/16 02:22:58;;;;;;;11.20;6.05;;;17.30;99.90;;;;;;5075726;28;20024;-76
2021/07/16 02:25:25;;;;;;;9.57;5.75;;;17.20;99.90;;;;;;5079159;28;20087;-76
2021/07/16 02:27:57;;;;;;;11.63;5.90;;;17.20;99.90;;;;;;5073634;28;20141;-76
2021/07/16 02:30:25;;;;;;;10.75;5.78;;;17.20;99.90;;;;;;5075515;28;20032;-75
2021/07/16 02:32:51;;;;;;;8.07;5.78;;;17.20;99.90;;;;;;5074392;28;20028;-76
2021/07/16 02:35:17;;;;;;;10.02;5.13;;;17.20;99.90;;;;;;5076227;28;20111;-75
2021/07/16 02:37:44;;;;;;;11.88;5.15;;;17.20;99.90;;;;;;5076336;28;20379;-75
2021/07/16 02:40:11;;;;;;;13.98;5.57;;;17.20;99.90;;;;;;5074078;28;20027;-75
2021/07/16 02:42:37;;;;;;;7.82;5.38;;;17.20;99.90;;;;;;5074626;28;20505;-75
2021/07/16 02:45:06;;;;;;;13.82;6.07;;;17.20;99.90;;;;;;5075651;28;20485;-75
2021/07/16 02:47:32;;;;;;;7.93;5.75;;;17.20;99.90;;;;;;5075694;28;20023;-75
2021/07/16 02:49:57;;;;;;;8.23;4.97;;;17.10;99.90;;;;;;5075003;28;20021;-75
2021/07/16 02:52:23;;;;;;;8.80;5.10;;;17.10;99.90;;;;;;5078053;28;20025;-76
2021/07/16 02:54:48;;;;;;;11.27;5.72;;;17.10;99.90;;;;;;5073743;28;20492;-76
2021/07/16 02:57:14;;;;;;;8.90;4.95;;;17.10;99.90;;;;;;5075741;28;20061;-76
2021/07/16 02:59:39;;;;;;;11.40;6.88;;;17.10;99.90;;;;;;5081516;28;20061;-75
2021/07/16 03:02:07;;;;;;;10.05;5.78;;;17.10;99.90;;;;;;5076103;28;20481;-75
2021/07/16 03:04:32;;;;;;;11.05;5.72;;;17.10;99.90;;;;;;5075042;28;20023;-76
2021/07/16 03:06:58;;;;;;;11.52;5.68;;;17.00;99.90;;;;;;5074881;28;20021;-75
2021/07/16 03:09:23;;;;;;;11.50;5.13;;;17.00;99.90;;;;;;5076269;28;20035;-75
2021/07/16 03:11:48;;;;;;;8.23;4.80;;;17.00;99.90;;;;;;5073843;28;20504;-75
2021/07/16 03:14:14;;;;;;;11.45;5.95;;;17.00;99.90;;;;;;5076093;28;20108;-75
2021/07/16 03:16:40;;;;;;;11.23;5.05;;;17.00;99.90;;;;;;5076219;28;20221;-75
2021/07/16 03:19:05;;;;;;;9.95;5.40;;;17.00;99.80;;;;;;5071310;28;20044;-75
2021/07/16 03:21:34;;;;;;;14.07;5.70;;;17.00;99.70;;;;;;5077883;28;20463;-75
2021/07/16 03:24:01;;;;;;;10.45;5.30;;;17.00;99.70;;;;;;5077445;28;20028;-75
2021/07/16 03:26:26;;;;;;;13.27;4.85;;;17.00;99.60;;;;;;5082421;28;20024;-75
2021/07/16 03:28:52;;;;;;;8.50;4.60;;;17.00;99.60;;;;;;5075919;28;20035;-76
2021/07/16 03:31:17;;;;;;;9.73;4.82;;;16.90;99.50;;;;;;5071790;28;20029;-75
2021/07/16 03:33:43;;;;;;;8.60;4.80;;;16.90;99.40;;;;;;5077058;28;20374;-75
2021/07/16 03:36:09;;;;;;;10.50;5.45;;;16.90;99.40;;;;;;5072500;28;20024;-75
2021/07/16 03:38:36;;;;;;;10.18;4.25;;;16.90;99.30;;;;;;5073639;28;20040;-75
2021/07/16 03:41:02;;;;;;;13.48;5.35;;;16.90;99.30;;;;;;5073751;28;20462;-75
2021/07/16 03:43:28;;;;;;;9.35;4.68;;;16.80;99.20;;;;;;5072656;28;20028;-75
2021/07/16 03:45:54;;;;;;;7.28;4.38;;;16.80;99.20;;;;;;5072481;28;20028;-75
2021/07/16 03:48:20;;;;;;;10.35;4.63;;;16.80;99.20;;;;;;5074602;28;20024;-75
2021/07/16 03:50:47;;;;;;;11.05;4.80;;;16.90;99.20;;;;;;5081909;28;20035;-75
2021/07/16 03:53:13;;;;;;;10.77;4.78;;;16.80;99.10;;;;;;5075406;28;20024;-75
2021/07/16 03:55:40;;;;;;;13.32;5.45;;;16.80;99.10;;;;;;5075182;28;20101;-75
2021/07/16 03:58:06;;;;;;;12.02;4.50;;;16.70;99.00;;;;;;5072947;28;20031;-75
2021/07/16 04:00:32;;;;;;;7.57;4.13;;;16.70;99.00;;;;;;5072320;28;20016;-75
2021/07/16 04:02:59;;;;;;;6.97;4.07;;;16.80;99.10;;;;;;5071062;28;20019;-75
2021/07/16 04:05:25;;;;;;;7.40;3.70;;;16.80;99.00;;;;;;5070541;28;20112;-75
2021/07/16 04:07:53;;;;;;;11.00;4.15;;;16.80;99.00;;;;;;5080178;28;20098;-75
2021/07/16 04:10:21;;;;;;;10.48;3.38;;;16.70;98.90;;;;;;5073416;28;20044;-75
2021/07/16 04:12:57;;;;;;;9.40;4.00;;;16.80;99.00;;;;;;5073079;28;20111;-75
2021/07/16 04:15:25;;;;;;;10.60;4.55;;;16.80;98.90;;;;;;5072997;28;20020;-75
2021/07/16 04:17:52;;;;;;;8.38;3.83;;;16.80;99.00;;;;;;5072499;28;20027;-75
2021/07/16 04:20:17;;;;;;;7.80;3.30;;;16.80;98.90;;;;;;5071544;28;20028;-75
2021/07/16 04:22:45;;;;;;;6.55;3.80;;;16.80;98.90;;;;;;5071152;28;20039;-75
2021/07/16 04:25:14;;;;;;;8.52;3.60;;;16.80;98.90;;;;;;5074470;28;20227;-75
2021/07/16 04:27:41;;;;;;;8.57;3.97;;;16.80;98.80;;;;;;5072076;28;20044;-75
2021/07/16 04:30:08;;;;;;;7.88;3.63;;;16.80;98.90;;;;;;5071558;28;20478;-75
2021/07/16 04:32:33;;;;;;;6.13;3.08;;;16.80;98.90;;;;;;5073782;28;20033;-75
2021/07/16 04:34:59;;;;;;;11.43;4.05;;;16.90;98.90;;;;;;5079167;28;20016;-75
2021/07/16 04:37:25;;;;;;;9.55;3.05;;;16.90;98.90;;;;;;5077427;28;20056;-75
2021/07/16 04:39:50;;;;;;;9.38;2.97;;;16.90;98.90;;;;;;5072738;28;20465;-74
2021/07/16 04:42:16;;;;;;;5.20;2.65;;;16.90;98.80;;;;;;5079206;28;20036;-74
2021/07/16 04:44:41;;;;;;;5.55;2.72;;;17.00;98.80;;;;;;5075769;28;20040;-74
2021/07/16 04:47:07;;;;;;;7.20;2.75;;;17.00;98.80;;;;;;5075177;28;20108;-74
2021/07/16 04:49:32;;;;;;;8.05;2.75;;;17.00;98.80;;;;;;5076407;28;20031;-74
2021/07/16 04:52:00;;;;;;;10.00;2.80;;;17.10;98.70;;;;;;5078955;28;20078;-74
2021/07/16 04:54:25;;;;;;;8.55;2.90;;;17.10;98.70;;;;;;5078517;28;20017;-74
2021/07/16 04:56:51;;;;;;;8.48;2.92;;;17.10;98.60;;;;;;5076380;28;20028;-74
2021/07/16 04:59:17;;;;;;;10.13;3.05;;;17.10;98.60;;;;;;5076953;28;20385;-74
2021/07/16 05:01:42;;;;;;;5.82;2.70;;;17.00;98.60;;;;;;5075642;28;20484;-74
2021/07/16 05:04:08;;;;;;;9.25;3.03;;;17.10;98.70;;;;;;5073780;28;20029;-74
2021/07/16 05:06:33;;;;;;;11.00;3.33;;;17.10;98.70;;;;;;5075892;28;20032;-74
2021/07/16 05:08:59;;;;;;;8.25;2.90;;;17.10;98.70;;;;;;5076890;28;20052;-74
2021/07/16 05:11:24;;;;;;;5.30;2.65;;;17.10;98.60;;;;;;5078160;28;20025;-74
2021/07/16 05:13:50;;;;;;;6.47;2.80;;;17.20;98.60;;;;;;5075614;28;20436;-74
2021/07/16 05:16:17;;;;;;;9.05;3.20;;;17.20;98.50;;;;;;5078478;28;20100;-74
2021/07/16 05:18:43;;;;;;;5.32;2.50;;;17.20;98.50;;;;;;5073719;28;20052;-74
2021/07/16 05:21:12;;;;;;;7.00;2.60;;;17.20;98.50;;;;;;5074599;28;20047;-74
2021/07/16 05:23:37;;;;;;;12.20;2.80;;;17.20;98.50;;;;;;5075943;28;20458;-74
2021/07/16 05:26:03;;;;;;;10.20;2.80;;;17.20;98.60;;;;;;5077778;28;20035;-74
2021/07/16 05:28:29;;;;;;;10.52;3.58;;;17.20;98.50;;;;;;5086617;28;20116;-74
2021/07/16 05:30:55;;;;;;;6.80;3.05;;;17.20;98.40;;;;;;5074343;28;20095;-74
2021/07/16 05:33:21;;;;;;;10.73;2.70;;;17.30;98.40;;;;;;5076721;28;20493;-74
2021/07/16 05:35:47;;;;;;;8.75;2.65;;;17.30;98.40;;;;;;5078280;28;20027;-74
2021/07/16 05:38:13;;;;;;;6.72;2.42;;;17.30;98.30;;;;;;5074587;28;20032;-74
2021/07/16 05:40:39;;;;;;;6.50;2.90;;;17.30;98.30;;;;;;5076901;28;20091;-75
2021/07/16 05:43:08;;;;;;;8.57;2.80;;;17.40;98.30;;;;;;5056945;28;20098;-74
2021/07/16 05:45:35;;;;;;;6.88;2.83;;;17.50;98.20;;;;;;5076617;28;20019;-74
2021/07/16 05:48:04;;;;;;;9.05;2.67;;;17.50;98.10;;;;;;5081535;28;20090;-74
2021/07/16 05:50:30;;;;;;;6.55;2.53;;;17.60;98.10;;;;;;5087371;28;20385;-74
2021/07/16 05:52:55;;;;;;;6.93;2.42;;;17.60;98.00;;;;;;5090491;28;20020;-74
2021/07/16 05:55:22;;;;;;;8.82;3.17;;;17.60;98.00;;;;;;5076983;28;20046;-74
2021/07/16 05:57:47;;;;;;;9.15;2.55;;;17.60;97.90;;;;;;5074103;28;20474;-75
2021/07/16 06:00:13;;;;;;;5.15;2.53;;;17.70;97.90;;;;;;5085311;28;20023;-74
2021/07/16 06:02:39;;;;;;;7.45;2.30;;;17.70;97.90;;;;;;5093297;28;20473;-74
2021/07/16 06:05:05;;;;;;;7.70;2.40;;;17.80;97.80;;;;;;5094677;28;20036;-74
2021/07/16 06:07:31;;;;;;;5.82;2.28;;;17.80;97.80;;;;;;5094551;28;20039;-74
2021/07/16 06:09:56;;;;;;;9.73;2.85;;;17.80;97.70;;;;;;5093030;28;20024;-74
2021/07/16 06:12:22;;;;;;;10.00;3.00;;;17.80;97.60;;;;;;5093123;28;20481;-74
2021/07/16 06:14:54;;;;;;;6.90;3.00;;;17.80;97.60;;;;;;5093018;28;20115;-75
2021/07/16 06:17:20;;;;;;;7.35;2.40;;;17.90;97.60;;;;;;5094317;28;20402;-75
2021/07/16 06:19:45;;;;;;;7.63;2.10;;;18.00;97.60;;;;;;5094039;28;20051;-74
2021/07/16 06:22:11;;;;;;;6.78;2.75;;;18.00;97.50;;;;;;5094340;28;20149;-75
2021/07/16 06:24:37;;;;;;;8.15;2.25;;;18.10;97.40;;;;;;5094100;28;20028;-74
2021/07/16 06:27:03;;;;;;;8.30;2.65;;;18.10;97.30;;;;;;5094244;28;20028;-74
2021/07/16 06:29:28;;;;;;;4.88;2.05;;;18.10;97.20;;;;;;5093987;28;20485;-74
2021/07/16 06:31:54;;;;;;;8.20;2.88;;;18.10;97.20;;;;;;5094013;28;20107;-75
2021/07/16 06:34:20;;;;;;;6.15;2.38;;;18.10;97.10;;;;;;5093744;28;20481;-75
2021/07/16 06:36:45;;;;;;;7.50;2.70;;;18.10;97.10;;;;;;5089204;28;20377;-75
2021/07/16 06:39:11;;;;;;;8.52;3.15;;;18.10;97.10;;;;;;5071837;28;20136;-75
2021/07/16 06:41:36;;;;;;;7.53;2.40;;;18.20;97.00;;;;;;5073139;28;20099;-75
2021/07/16 06:44:03;;;;;;;8.70;2.95;;;18.20;96.90;;;;;;5071801;28;20025;-75
2021/07/16 06:46:28;;;;;;;7.05;2.65;;;18.20;96.80;;;;;;5073127;28;20020;-75
2021/07/16 06:48:54;;;;;;;6.47;2.28;;;18.10;96.70;;;;;;5086777;28;20092;-75
2021/07/16 06:51:20;;;;;;;5.88;2.53;;;18.20;96.80;;;;;;5086735;28;20111;-75
2021/07/16 06:53:46;;;;;;;11.43;2.60;;;18.10;96.70;;;;;;5089018;28;20028;-75
2021/07/16 06:56:12;;;;;;;8.77;2.55;;;18.10;96.60;;;;;;5092456;28;20012;-74
2021/07/16 06:58:37;;;;;;;9.55;2.55;;;18.10;96.60;;;;;;5091476;28;20023;-75
2021/07/16 07:01:03;;;;;;;7.60;2.42;;;18.10;96.60;;;;;;5083653;28;20478;-75
2021/07/16 07:03:29;;;;;;;8.82;2.20;;;18.20;96.60;;;;;;5072405;28;20028;-75
2021/07/16 07:05:58;;;;;;;9.02;2.70;;;18.20;96.60;;;;;;5071275;28;20021;-74
2021/07/16 07:08:23;;;;;;;6.22;2.20;;;18.30;96.50;;;;;;5091538;28;20055;-75
2021/07/16 07:10:49;;;;;;;6.15;2.05;;;18.30;96.50;;;;;;5092715;28;20059;-74
2021/07/16 07:13:15;;;;;;;8.27;2.58;;;18.40;96.40;;;;;;5092778;28;20059;-75
2021/07/16 07:15:41;;;;;;;9.20;2.67;;;18.40;96.20;;;;;;5085736;28;20031;-75
2021/07/16 07:18:07;;;;;;;9.05;2.55;;;18.30;96.20;;;;;;5092860;28;20024;-75
2021/07/16 07:20:34;;;;;;;9.93;2.58;;;18.40;96.10;;;;;;5092460;28;20028;-74
2021/07/16 07:23:01;;;;;;;5.25;1.77;;;18.30;96.00;;;;;;5077025;28;20028;-74
2021/07/16 07:25:27;;;;;;;7.97;2.53;;;18.40;96.10;;;;;;5072511;28;20016;-75
2021/07/16 07:27:53;;;;;;;7.60;2.00;;;18.40;96.00;;;;;;5071058;28;20189;-75
2021/07/16 07:30:19;;;;;;;6.20;2.33;;;18.40;95.90;;;;;;5071338;28;20103;-75
2021/07/16 07:32:45;;;;;;;8.60;1.88;;;18.40;95.80;;;;;;5091335;28;20031;-74
2021/07/16 07:35:11;;;;;;;9.52;2.03;;;18.40;95.70;;;;;;5090727;28;20024;-75
2021/07/16 07:37:38;;;;;;;7.63;2.40;;;18.50;95.60;;;;;;5090197;28;20036;-75
2021/07/16 07:40:06;;;;;;;8.55;1.95;;;18.50;95.60;;;;;;5092797;28;20499;-75
2021/07/16 07:42:35;;;;;;;8.60;2.08;;;18.50;95.50;;;;;;5092590;28;20499;-75
2021/07/16 07:45:00;;;;;;;10.18;3.03;;;18.50;95.50;;;;;;5092563;28;20493;-75
2021/07/16 07:47:31;;;;;;;10.43;2.60;;;18.50;95.50;;;;;;5092723;28;20028;-75
2021/07/16 07:49:57;;;;;;;6.07;2.15;;;18.40;95.40;;;;;;5092580;28;20020;-75
2021/07/16 07:52:23;;;;;;;9.75;2.30;;;18.40;95.40;;;;;;5092310;28;20089;-74
2021/07/16 07:54:48;;;;;;;10.20;2.47;;;18.40;95.40;;;;;;5092412;28;20035;-74
2021/07/16 07:57:14;;;;;;;10.07;2.20;;;18.40;95.40;;;;;;5079582;28;20432;-74
2021/07/16 07:59:42;;;;;;;6.45;2.03;;;18.50;95.40;;;;;;5071635;28;20066;-74
2021/07/16 08:02:08;;;;;;;6.00;1.83;;;18.50;95.40;;;;;;5066146;28;20580;-74
2021/07/16 08:04:35;;;;;;;10.68;2.08;;;18.60;95.50;;;;;;5063910;28;20031;-74
2021/07/16 08:07:02;;;;;;;6.25;1.90;;;18.60;95.40;;;;;;5074945;28;20024;-74
2021/07/16 08:09:27;;;;;;;9.70;2.50;;;18.60;95.30;;;;;;5072721;28;20030;-74
2021/07/16 08:11:53;;;;;;;10.15;2.20;;;18.60;95.40;;;;;;5074445;28;20095;-74
2021/07/16 08:14:18;;;;;;;7.78;1.92;;;18.70;95.40;;;;;;5081878;28;20055;-74
2021/07/16 08:16:46;;;;;;;4.85;1.70;;;18.70;95.40;;;;;;5093389;28;20031;-74
2021/07/16 08:19:17;;;;;;;9.73;2.08;;;18.80;95.30;;;;;;5095185;28;20056;-73
2021/07/16 08:21:46;;;;;;;6.13;1.73;;;18.70;95.20;;;;;;5095014;28;20024;-73
2021/07/16 08:24:12;;;;;;;;;;;18.70;95.20;;;;;;5095711;28;20500;-73
2021/07/16 08:26:38;;;;;;;8.23;2.10;;;18.70;95.20;;;;;;5094344;28;19904;-73
2021/07/16 08:29:04;;;;;;;8.68;2.58;;;18.70;95.20;;;;;;5080710;28;20020;-73
2021/07/16 08:31:29;;;;;;;6.20;1.90;;;18.70;95.20;;;;;;5084517;28;20039;-71
2021/07/16 08:33:55;;;;;;;12.82;2.53;;;18.70;95.10;;;;;;5065194;28;21191;-73
2021/07/16 08:36:20;;;;;;;6.95;1.80;;;18.70;95.00;;;;;;5075262;28;20039;-73
2021/07/16 08:38:46;;;;;;;7.70;1.73;;;18.80;95.10;;;;;;5084134;28;20493;-73
2021/07/16 08:41:12;;;;;;;6.55;1.85;;;18.90;95.10;;;;;;5095922;28;20481;-73
2021/07/16 08:43:40;;;;;;;8.82;2.33;;;19.00;95.10;;;;;;5095812;28;20031;-73
2021/07/16 08:46:08;;;;;;;8.23;2.77;;;19.00;95.10;;;;;;5091102;28;20020;-75
2021/07/16 08:48:36;;;;;;;7.97;2.67;;;19.10;95.10;;;;;;5095543;28;20133;-76
2021/07/16 08:51:01;;;;;;;8.63;2.67;;;19.20;95.10;;;;;;5095142;28;20516;-74
2021/07/16 08:53:28;;;;;;;7.93;2.42;;;19.30;95.10;;;;;;5082567;28;20044;-75
2021/07/16 08:55:54;;;;;;;9.40;2.65;;;19.40;95.00;;;;;;5081731;28;20043;-75
2021/07/16 08:58:19;;;;;;;8.57;2.28;;;19.50;94.90;;;;;;5096104;28;20099;-75
2021/07/16 09:00:45;;;;;;;10.27;2.92;;;19.50;94.80;;;;;;5095663;28;20026;-74
2021/07/16 09:03:11;;;;;;;11.00;2.63;;;19.70;94.70;;;;;;5094413;28;20024;-74
2021/07/16 09:05:40;;;;;;;9.85;3.05;;;19.80;94.40;;;;;;5095690;28;20020;-74
2021/07/16 09:08:13;;;;;;;9.20;3.05;;;20.00;94.00;;;;;;5083932;28;20024;-76
2021/07/16 09:10:44;;;;;;;7.85;2.55;;;20.00;93.80;;;;;;5077801;28;20078;-75
2021/07/16 09:13:10;;;;;;;11.73;3.80;;;20.10;93.90;;;;;;5089457;28;20468;-75
2021/07/16 09:15:35;;;;;;;7.90;2.47;;;20.20;93.90;;;;;;5095343;28;20426;-76
2021/07/16 09:18:21;;;;;;;9.68;1.95;;;20.30;93.70;;;;;;5093797;28;20028;-76
2021/07/16 09:21:03;;;;;;;8.60;1.90;;;20.40;93.60;;;;;;5081417;28;20373;-75
2021/07/16 09:23:34;;;;;;;8.32;2.92;;;20.30;93.70;;;;;;5093988;28;20500;-75
2021/07/16 09:26:08;;;;;;;10.98;3.30;;;20.30;93.60;;;;;;5095353;28;20024;-75
2021/07/16 09:28:34;;;;;;;11.52;2.75;;;20.40;93.50;;;;;;5095004;28;20020;-75
2021/07/16 09:31:19;;;;;;;9.52;2.53;;;20.40;93.30;;;;;;5093798;28;20069;-75
2021/07/16 09:33:54;;;;;;;9.73;2.97;;;20.40;93.30;;;;;;5093699;28;20020;-75
2021/07/16 09:36:32;;;;;;;10.43;4.28;;;20.50;93.20;;;;;;5095316;28;20016;-75
2021/07/16 09:39:09;;;;;;;12.68;2.80;;;20.60;93.10;;;;;;5094768;28;20047;-75
2021/07/16 09:41:48;;;;;;;11.63;2.67;;;20.70;92.90;;;;;;5094863;28;20095;-75
2021/07/16 09:44:14;;;;;;;10.57;2.78;;;20.80;92.90;;;;;;5094956;28;20016;-76
2021/07/16 09:46:39;;;;;;;10.73;2.25;;;20.90;92.40;;;;;;5093693;28;20024;-76
2021/07/16 09:49:14;;;;;;;7.43;1.90;;;20.90;92.20;;;;;;5094761;28;20024;-76
2021/07/16 09:51:43;;;;;;;8.82;2.53;;;20.90;91.90;;;;;;5087760;28;20436;-76
2021/07/16 09:54:12;;;;;;;8.77;2.30;;;20.80;92.00;;;;;;5075933;28;20098;-76
2021/07/16 09:56:38;;;;;;;8.27;2.63;;;20.60;92.10;;;;;;5080997;28;20106;-74
2021/07/16 09:59:08;;;;;;;7.75;2.10;;;20.50;92.20;;;;;;5093373;28;20052;-76
2021/07/16 10:01:36;;;;;;;8.55;2.38;;;20.50;92.40;;;;;;5094731;28;20017;-76
2021/07/16 10:04:03;;;;;;;9.05;2.35;;;20.50;92.50;;;;;;5094498;28;20051;-75
2021/07/16 10:06:29;;;;;;;12.15;2.72;;;20.40;92.60;;;;;;5092414;28;20453;-76
2021/07/16 10:08:56;;;;;;;8.13;2.60;;;20.40;92.50;;;;;;5086603;28;20116;-76
2021/07/16 10:11:24;;;;;;;10.55;2.70;;;20.40;92.50;;;;;;5109370;28;20065;-76
2021/07/16 10:13:50;;;;;;;10.55;2.63;;;20.30;92.40;;;;;;5094401;28;20016;-75
2021/07/16 10:16:16;;;;;;;10.15;2.55;;;20.30;92.50;;;;;;5092436;28;20016;-76
2021/07/16 10:18:42;;;;;;;7.70;2.30;;;20.30;92.60;;;;;;5087117;28;20016;-76
2021/07/16 10:21:08;;;;;;;6.97;2.03;;;20.20;92.70;;;;;;5072857;28;20085;-76
2021/07/16 10:23:34;;;;;;;11.55;2.67;;;20.20;92.70;;;;;;5073134;28;20016;-76
2021/07/16 10:26:07;;;;;;;6.80;2.03;;;20.20;92.80;;;;;;5082622;28;20031;-76
2021/07/16 10:28:41;;;;;;;10.68;3.45;;;20.10;92.70;;;;;;5092860;28;20020;-76
2021/07/16 10:31:28;;;;;;;13.98;3.13;;;20.10;92.70;;;;;;5089314;28;20020;-76
2021/07/16 10:34:17;;;;;;;12.27;2.70;;;20.10;92.60;;;;;;5085902;28;20020;-76
2021/07/16 10:36:45;;;;;;;12.18;3.08;;;20.10;92.70;;;;;;5078723;28;20032;-76
2021/07/16 10:39:13;;;;;;;7.22;2.50;;;20.00;92.80;;;;;;5091429;28;20043;-75
2021/07/16 10:41:40;;;;;;;12.63;2.53;;;20.10;92.90;;;;;;5092498;28;20545;-76
2021/07/16 10:44:08;;;;;;;7.45;1.98;;;20.00;93.00;;;;;;5092284;28;20022;-76
2021/07/16 10:46:36;;;;;;;9.65;2.15;;;20.00;93.00;;;;;;5091829;28;20024;-76
2021/07/16 10:49:04;;;;;;;6.35;1.98;;;20.00;93.00;;;;;;5091704;28;20131;-76
2021/07/16 10:51:32;;;;;;;10.60;2.00;;;20.00;93.10;;;;;;5089200;28;20024;-76
2021/07/16 10:54:00;;;;;;;9.80;2.22;;;20.00;93.20;;;;;;5074056;28;20028;-76
2021/07/16 10:56:43;;;;;;;10.48;3.55;;;20.00;93.20;;;;;;5077199;28;20027;-76
2021/07/16 10:59:11;;;;;;;9.00;2.85;;;20.00;93.10;;;;;;5083136;28;20042;-76
2021/07/16 11:01:39;;;;;;;8.35;2.33;;;19.90;93.20;;;;;;5080129;28;20173;-76
2021/07/16 11:04:29;;;;;;;10.82;3.40;;;20.00;93.20;;;;;;5087242;28;20110;-76
2021/07/16 11:06:57;;;;;;;12.95;2.42;;;20.10;93.00;;;;;;5085121;28;20016;-76
2021/07/16 11:09:32;;;;;;;9.23;1.98;;;20.20;93.00;;;;;;5085388;28;20460;-76
2021/07/16 11:12:31;;;;;;;7.78;2.05;;;20.40;92.80;;;;;;5076930;28;20021;-76
2021/07/16 11:14:58;;;;;;;10.43;3.50;;;20.70;92.50;;;;;;5075011;28;20024;-76
2021/07/16 11:17:38;;;;;;;10.43;2.63;;;20.90;92.10;;;;;;5082244;28;20098;-76
2021/07/16 11:20:15;;;;;;;9.27;2.53;;;21.10;91.50;;;;;;5072354;28;20023;-76
2021/07/16 11:22:57;;;;;;;9.68;2.40;;;21.30;91.20;;;;;;5072466;28;20373;-76
2021/07/16 11:25:23;;;;;;;9.45;1.92;;;21.30;91.00;;;;;;5072317;28;20031;-76
2021/07/16 11:27:49;;;;;;;12.90;2.78;;;21.30;91.10;;;;;;5081344;28;20029;-76
2021/07/16 11:30:15;;;;;;;8.98;2.58;;;21.40;90.90;;;;;;5083668;28;20487;-76
2021/07/16 11:32:41;;;;;;;12.27;2.95;;;21.30;90.60;;;;;;5071222;28;20142;-76
2021/07/16 11:35:07;;;;;;;10.40;2.90;;;21.30;90.70;;;;;;5070690;28;20020;-76
2021/07/16 11:37:35;;;;;;;8.90;2.50;;;21.20;90.60;;;;;;5074965;28;20020;-76
2021/07/16 11:40:05;;;;;;;5.32;1.90;;;21.10;90.90;;;;;;5074990;28;20119;-76
2021/07/16 11:42:33;;;;;;;6.82;2.03;;;21.20;90.90;;;;;;5072002;28;20478;-76
2021/07/16 11:44:59;;;;;;;7.75;2.15;;;21.10;90.90;;;;;;5071226;28;20375;-76
2021/07/16 11:47:27;;;;;;;7.82;2.40;;;21.10;90.90;;;;;;5072062;28;20066;-76
2021/07/16 11:50:01;;;;;;;7.65;2.38;;;21.20;90.90;;;;;;5070676;28;20414;-76
2021/07/16 11:52:34;;;;;;;11.00;2.35;;;21.30;90.80;;;;;;5074569;28;20024;-76
2021/07/16 11:55:11;;;;;;;8.68;2.20;;;21.40;90.70;;;;;;5070385;28;20549;-76
2021/07/16 11:57:47;;;;;;;8.48;2.20;;;21.50;90.60;;;;;;5070569;28;20028;-77
2021/07/16 12:00:13;;;;;;;10.00;2.88;;;21.60;90.20;;;;;;5073391;28;20021;-76
2021/07/16 12:02:38;;;;;;;7.15;2.10;;;21.70;89.90;;;;;;5072091;28;20375;-76
2021/07/16 12:05:04;;;;;;;7.20;2.17;;;21.90;89.50;;;;;;5090751;28;20031;-76
2021/07/16 12:07:38;;;;;;;10.32;2.38;;;22.00;89.30;;;;;;5092199;28;20042;-77
2021/07/16 12:10:18;;;;;;;12.45;3.10;;;21.90;89.00;;;;;;5091105;28;20378;-77
2021/07/16 12:12:44;;;;;;;7.32;2.45;;;21.80;88.90;;;;;;5092412;28;20016;-77
2021/07/16 12:15:18;;;;;;;8.48;2.47;;;21.70;89.70;;;;;;5092254;28;20028;-77
2021/07/16 12:17:55;;;;;;;6.28;1.95;;;21.70;89.60;;;;;;5090440;28;20025;-77
2021/07/16 12:20:33;;;;;;;5.47;1.92;;;21.80;89.50;;;;;;5092151;28;20101;-76
2021/07/16 12:22:59;;;;;;;7.10;1.63;;;21.80;89.20;;;;;;5092200;28;20036;-76
2021/07/16 12:25:26;;;;;;;8.02;2.85;;;21.80;89.50;;;;;;5090481;28;20025;-77
2021/07/16 12:28:18;;;;;;;6.70;2.22;;;21.90;89.50;;;;;;5070153;28;20033;-76
2021/07/16 12:30:44;;;;;;;6.53;1.55;;;22.00;89.30;;;;;;5071605;28;20032;-77
2021/07/16 12:33:10;;;;;;;6.43;2.00;;;22.00;89.40;;;;;;5071573;28;20031;-77
2021/07/16 12:35:38;;;;;;;8.73;2.25;;;22.10;89.30;;;;;;5071435;28;20020;-77
2021/07/16 12:38:09;;;;;;;12.25;2.55;;;22.20;89.00;;;;;;5071416;28;20408;-77
2021/07/16 12:40:35;;;;;;;9.30;2.25;;;22.30;88.50;;;;;;5068140;28;20104;-76
2021/07/16 12:43:16;;;;;;;8.90;2.05;;;22.40;88.10;;;;;;5059064;28;20402;-76
2021/07/16 12:45:52;;;;;;;10.30;2.00;;;22.50;87.50;;;;;;5058115;28;20978;-75
2021/07/16 12:48:25;;;;;;;11.80;3.30;;;22.50;87.10;;;;;;5086838;28;20035;-76